| Date | Time | Temp. (oF) | Dew Point (oF) | Rel. Hum. (%) | Press. (in.) | Wind Dir. | Wind Speed (mph) | Hourly Rainfall (in.) |
|
|---|---|---|---|---|---|---|---|---|---|
| 1 | 05/31 | 00:00 | 56 | 36 | 48 | 30.07 | W | 2 | 0.00 |
| 2 | 05/30 | 23:00 | 57 | 35 | 45 | 30.06 | WSW | 1 | 0.00 |
| 3 | 05/30 | 22:00 | 59 | 33 | 39 | 30.04 | W | 2 | 0.00 |
| 4 | 05/30 | 21:00 | 62 | 35 | 37 | 30.02 | SW | 5 | 0.00 |
| 5 | 05/30 | 20:00 | 64 | 34 | 33 | 30.00 | WNW | 4 | 0.00 |
| 6 | 05/30 | 19:00 | 66 | 35 | 32 | 29.98 | WNW | 4 | 0.00 |
| 7 | 05/30 | 18:00 | 67 | 35 | 31 | 29.95 | NNW | 8 | 0.00 |
| 8 | 05/30 | 17:00 | 68 | 35 | 31 | 29.95 | NW | 7 | 0.00 |
| 9 | 05/30 | 16:00 | 67 | 35 | 32 | 29.97 | WNW | 11 | 0.00 |
| 10 | 05/30 | 15:00 | 68 | 36 | 32 | 29.99 | W | 16 | 0.00 |
| 11 | 05/30 | 14:00 | 66 | 39 | 38 | 30.00 | NNW | 8 | 0.00 |
| 12 | 05/30 | 13:00 | 65 | 37 | 37 | 30.00 | WSW | 8 | 0.00 |
| 13 | 05/30 | 12:00 | 62 | 39 | 43 | 30.01 | W | 11 | 0.00 |
| 14 | 05/30 | 11:00 | 60 | 39 | 46 | 30.02 | NW | 13 | 0.00 |
| 15 | 05/30 | 10:00 | 58 | 40 | 53 | 30.02 | W | 7 | 0.00 |
| 16 | 05/30 | 09:00 | 57 | 42 | 59 | 30.03 | W | 9 | 0.00 |
| 17 | 05/30 | 08:00 | 56 | 41 | 59 | 30.02 | W | 4 | 0.00 |
| 18 | 05/30 | 07:00 | 55 | 43 | 66 | 30.00 | NNW | 4 | 0.00 |
| 19 | 05/30 | 06:00 | 56 | 46 | 70 | 29.98 | WNW | 2 | 0.00 |
| 20 | 05/30 | 05:00 | 59 | 47 | 66 | 29.97 | NW | 9 | 0.00 |
| 21 | 05/30 | 04:00 | 61 | 49 | 67 | 29.95 | NW | 4 | 0.00 |
| 22 | 05/30 | 03:00 | 62 | 55 | 78 | 29.94 | WNW | 2 | 0.00 |
| 23 | 05/30 | 02:00 | 63 | 54 | 75 | 29.93 | W | 3 | 0.00 |
| 24 | 05/30 | 01:00 | 64 | 54 | 72 | 29.92 | WSW | 2 | 0.00 |